Terminal Aerodrome Forecast
Issued by NWS Jacksonville, FL

Home | Current Version | Previous Version | Text Only | Print | Product List | Glossary On
Versions: 1 2 3 4 5 6 7 8 9 10 11 12 13 14 15
508
FTUS42 KJAX 260520
TAFGNV
TAF
KGNV 260520Z 2606/2706 00000KT P6SM SCT040 BKN250
     FM261400 06009KT P6SM VCSH SCT020 BKN030
     FM261700 07012KT P6SM VCTS BKN035CB
     FM270000 06007KT P6SM SCT040 BKN250=

USA.gov is the U.S. government's official web portal to all federal, state and local government web resources and services.